Time;durP1;ratioP1;P1;durP2;ratioP2;P2;SDS_P1;SDS_P2;PMS_P1;PMS_P2;Temp;Humidity;BMP_temperature;BMP_pressure;BME280_temperature;BME280_humidity;BME280_pressure;Samples;Min_cycle;Max_cycle;Signal;HPM_P1;HPM_P2
2021/10/13 00:01:50;;;;;;;5.00;3.10;;;10.70;67.60;;;;;;5049105;28;20032;-66
2021/10/13 00:04:16;;;;;;;6.40;3.00;;;10.70;67.80;;;;;;5049962;28;20496;-66
2021/10/13 00:06:42;;;;;;;5.35;3.20;;;10.70;67.70;;;;;;5040217;28;20028;-66
2021/10/13 00:09:08;;;;;;;5.38;2.65;;;10.70;67.50;;;;;;5039706;28;20029;-66
2021/10/13 00:11:34;;;;;;;6.40;2.60;;;10.70;67.40;;;;;;5034866;28;20108;-66
2021/10/13 00:14:01;;;;;;;5.25;2.85;;;10.70;67.30;;;;;;5041512;28;20105;-66
2021/10/13 00:16:30;;;;;;;5.38;2.97;;;10.70;67.10;;;;;;5051264;28;20079;-66
2021/10/13 00:18:56;;;;;;;8.05;3.00;;;10.80;67.10;;;;;;5051251;28;20051;-66
2021/10/13 00:21:22;;;;;;;5.57;2.63;;;10.90;67.00;;;;;;5047323;28;20551;-66
2021/10/13 00:23:48;;;;;;;6.88;2.92;;;11.00;67.10;;;;;;5038552;28;20032;-66
2021/10/13 00:26:14;;;;;;;5.78;2.78;;;11.00;67.10;;;;;;5034891;28;20633;-66
2021/10/13 00:28:40;;;;;;;6.38;2.85;;;11.10;67.10;;;;;;5020276;28;20025;-66
2021/10/13 00:31:07;;;;;;;5.57;2.80;;;11.10;67.10;;;;;;5046629;28;20060;-66
2021/10/13 00:33:33;;;;;;;5.82;3.10;;;11.10;67.20;;;;;;5045479;28;20029;-66
2021/10/13 00:35:59;;;;;;;7.50;3.28;;;11.10;67.20;;;;;;5039525;28;20021;-66
2021/10/13 00:38:25;;;;;;;7.10;2.88;;;11.20;67.50;;;;;;5035304;28;20032;-66
2021/10/13 00:40:50;;;;;;;9.00;3.53;;;11.30;67.90;;;;;;5047320;28;20029;-66
2021/10/13 00:43:16;;;;;;;7.13;3.40;;;11.30;68.10;;;;;;5039579;28;20052;-67
2021/10/13 00:45:42;;;;;;;6.70;3.33;;;11.40;68.30;;;;;;5043290;28;20040;-66
2021/10/13 00:48:08;;;;;;;7.43;3.10;;;11.50;68.40;;;;;;5039072;28;20021;-66
2021/10/13 00:50:34;;;;;;;6.65;3.17;;;11.50;68.50;;;;;;5036082;28;20028;-66
2021/10/13 00:53:00;;;;;;;5.63;3.22;;;11.50;68.40;;;;;;5034829;28;20104;-66
2021/10/13 00:55:26;;;;;;;8.85;3.40;;;11.60;68.70;;;;;;5039329;28;20021;-66
2021/10/13 00:57:52;;;;;;;6.63;3.33;;;11.60;68.90;;;;;;5046797;28;20031;-66
2021/10/13 01:00:24;;;;;;;8.52;3.28;;;11.60;69.00;;;;;;5047284;28;20567;-67
2021/10/13 01:03:02;;;;;;;6.10;3.38;;;11.60;69.30;;;;;;5037896;28;20028;-66
2021/10/13 01:05:39;;;;;;;7.03;3.67;;;11.60;69.50;;;;;;5038821;28;20492;-66
2021/10/13 01:08:27;;;;;;;6.85;3.55;;;11.60;69.60;;;;;;5050738;28;20017;-66
2021/10/13 01:11:23;;;;;;;6.63;3.60;;;11.40;69.50;;;;;;5045139;28;20029;-66
2021/10/13 01:14:16;;;;;;;7.13;3.70;;;11.40;69.80;;;;;;5022510;28;20021;-67
2021/10/13 01:17:10;;;;;;;7.63;3.80;;;11.30;70.00;;;;;;5050564;28;20028;-67
2021/10/13 01:19:45;;;;;;;11.75;4.38;;;11.20;70.30;;;;;;5044470;28;20037;-67
2021/10/13 01:22:36;;;;;;;9.70;4.43;;;11.10;70.50;;;;;;5038193;28;20029;-67
2021/10/13 01:25:21;;;;;;;8.02;3.55;;;11.10;70.80;;;;;;5048435;28;20411;-67
2021/10/13 01:27:54;;;;;;;8.55;3.63;;;11.00;70.90;;;;;;5048692;28;20036;-66
2021/10/13 01:30:22;;;;;;;6.43;3.08;;;10.90;70.70;;;;;;5046329;28;20068;-67
2021/10/13 01:32:56;;;;;;;9.38;3.65;;;10.90;70.40;;;;;;5037142;28;20120;-66
2021/10/13 01:35:23;;;;;;;7.97;4.13;;;10.80;70.20;;;;;;5033877;28;20064;-66
2021/10/13 01:37:55;;;;;;;7.85;4.60;;;10.80;70.50;;;;;;5051156;28;20558;-67
2021/10/13 01:40:29;;;;;;;8.70;4.20;;;10.70;70.70;;;;;;5039708;28;20150;-66
2021/10/13 01:42:56;;;;;;;6.90;3.97;;;10.70;71.00;;;;;;5037740;28;20113;-66
2021/10/13 01:45:23;;;;;;;6.72;3.70;;;10.70;70.90;;;;;;5038267;28;20033;-66
2021/10/13 01:47:50;;;;;;;8.02;3.92;;;10.70;70.80;;;;;;5037755;28;20013;-66
2021/10/13 01:50:18;;;;;;;7.65;3.58;;;10.60;70.50;;;;;;5048408;28;20068;-66
2021/10/13 01:52:49;;;;;;;6.63;3.67;;;10.60;70.40;;;;;;5050624;28;20028;-66
2021/10/13 01:55:17;;;;;;;6.80;3.50;;;10.50;70.30;;;;;;5038675;28;20029;-66
2021/10/13 01:57:47;;;;;;;6.63;3.70;;;10.50;70.10;;;;;;5037974;28;20031;-66
2021/10/13 02:00:15;;;;;;;6.32;3.70;;;10.40;69.90;;;;;;5041135;28;20023;-66
2021/10/13 02:02:41;;;;;;;5.97;3.85;;;10.40;69.80;;;;;;5035593;28;20082;-66
2021/10/13 02:05:08;;;;;;;6.47;4.10;;;10.30;70.60;;;;;;5033235;28;20104;-66
2021/10/13 02:07:37;;;;;;;8.00;3.80;;;10.30;69.70;;;;;;5035037;28;20026;-66
2021/10/13 02:10:07;;;;;;;9.40;3.95;;;10.30;70.00;;;;;;5038031;28;20029;-66
2021/10/13 02:12:35;;;;;;;9.73;3.95;;;10.30;70.10;;;;;;5037141;28;20033;-66
2021/10/13 02:15:04;;;;;;;7.57;3.90;;;10.20;69.80;;;;;;5048989;28;20033;-66
2021/10/13 02:17:32;;;;;;;8.98;4.72;;;10.10;69.70;;;;;;5034232;28;20071;-66
2021/10/13 02:19:59;;;;;;;8.40;4.22;;;10.10;69.80;;;;;;5038032;28;20021;-66
2021/10/13 02:22:29;;;;;;;6.78;4.38;;;10.10;70.40;;;;;;5033979;28;20107;-66
2021/10/13 02:24:55;;;;;;;8.38;4.45;;;10.00;71.00;;;;;;5042242;28;20052;-66
2021/10/13 02:27:29;;;;;;;6.72;3.90;;;10.10;71.20;;;;;;5047468;28;20025;-66
2021/10/13 02:29:56;;;;;;;8.20;3.92;;;10.00;71.30;;;;;;5053087;28;20025;-66
2021/10/13 02:32:22;;;;;;;8.88;3.92;;;10.00;71.00;;;;;;5049306;28;20546;-66
2021/10/13 02:34:48;;;;;;;8.35;3.88;;;10.00;70.90;;;;;;5053831;28;20018;-66
2021/10/13 02:37:15;;;;;;;7.28;3.80;;;9.90;70.60;;;;;;5051981;28;20025;-66
2021/10/13 02:39:41;;;;;;;8.10;4.00;;;9.90;70.60;;;;;;5034855;28;20028;-66
2021/10/13 02:42:07;;;;;;;8.20;4.55;;;9.90;70.60;;;;;;5052757;28;20021;-67
2021/10/13 02:44:34;;;;;;;6.53;3.90;;;9.80;70.50;;;;;;5052705;28;20516;-66
2021/10/13 02:47:14;;;;;;;8.43;4.18;;;9.80;70.50;;;;;;5037154;28;20091;-66
2021/10/13 02:49:47;;;;;;;7.67;4.40;;;9.80;70.30;;;;;;5038838;28;20048;-66
2021/10/13 02:52:19;;;;;;;8.90;3.95;;;9.80;70.10;;;;;;5045981;28;20034;-67
2021/10/13 02:55:09;;;;;;;9.40;4.68;;;9.80;70.10;;;;;;5057279;28;20103;-66
2021/10/13 02:57:58;;;;;;;6.72;3.80;;;9.70;70.20;;;;;;5047170;28;20040;-66
2021/10/13 03:00:24;;;;;;;7.00;3.75;;;9.70;70.50;;;;;;5041333;28;20030;-66
2021/10/13 03:02:57;;;;;;;10.32;4.10;;;9.70;70.80;;;;;;5040208;28;20025;-66
2021/10/13 03:05:24;;;;;;;7.00;3.97;;;9.70;70.80;;;;;;5037118;28;20021;-66
2021/10/13 03:07:55;;;;;;;7.57;4.18;;;9.70;70.90;;;;;;5053968;28;20411;-66
2021/10/13 03:10:22;;;;;;;7.85;4.60;;;9.70;71.50;;;;;;5043126;28;20076;-66
2021/10/13 03:12:55;;;;;;;8.23;4.20;;;9.60;71.90;;;;;;5040863;28;20042;-66
2021/10/13 03:15:23;;;;;;;9.57;4.70;;;9.60;72.80;;;;;;5041219;28;20018;-66
2021/10/13 03:17:53;;;;;;;6.57;4.25;;;9.60;72.80;;;;;;5038825;28;20034;-66
2021/10/13 03:20:20;;;;;;;7.85;4.57;;;9.50;72.70;;;;;;5036199;28;20025;-66
2021/10/13 03:22:47;;;;;;;7.07;3.95;;;9.50;72.50;;;;;;5038753;28;20492;-66
2021/10/13 03:25:12;;;;;;;8.43;3.70;;;9.50;72.40;;;;;;5040687;28;20064;-66
2021/10/13 03:27:38;;;;;;;7.93;3.97;;;9.50;72.20;;;;;;5040996;28;20053;-66
2021/10/13 03:30:06;;;;;;;9.13;3.65;;;9.50;72.00;;;;;;5041492;28;20128;-66
2021/10/13 03:32:32;;;;;;;6.88;3.67;;;9.40;71.70;;;;;;5051342;28;20056;-66
2021/10/13 03:34:57;;;;;;;6.95;3.67;;;9.40;71.60;;;;;;5052350;28;20396;-66
2021/10/13 03:37:23;;;;;;;5.90;3.50;;;9.40;71.50;;;;;;5049397;28;20036;-66
2021/10/13 03:39:49;;;;;;;7.40;3.65;;;9.40;71.30;;;;;;5050528;28;20116;-66
2021/10/13 03:42:15;;;;;;;4.85;3.33;;;9.40;71.20;;;;;;5049430;28;20037;-66
2021/10/13 03:44:41;;;;;;;8.82;3.70;;;9.40;71.00;;;;;;5038321;28;20040;-66
2021/10/13 03:47:07;;;;;;;5.93;3.40;;;9.30;70.80;;;;;;5051236;28;20074;-66
2021/10/13 03:49:35;;;;;;;8.43;3.70;;;9.30;70.60;;;;;;5034997;28;20021;-66
2021/10/13 03:52:02;;;;;;;8.25;3.83;;;9.30;70.50;;;;;;5051289;28;20036;-66
2021/10/13 03:54:28;;;;;;;8.88;4.40;;;9.20;70.60;;;;;;5046962;28;20026;-66
2021/10/13 03:56:53;;;;;;;6.95;3.80;;;9.20;70.60;;;;;;5040780;28;20044;-66
2021/10/13 03:59:19;;;;;;;7.80;4.18;;;9.20;70.60;;;;;;5039614;28;20028;-66
2021/10/13 04:01:45;;;;;;;7.47;4.00;;;9.20;70.60;;;;;;5052321;28;20025;-66
2021/10/13 04:04:11;;;;;;;7.70;4.30;;;9.20;70.60;;;;;;5050086;28;20033;-66
2021/10/13 04:06:37;;;;;;;9.05;4.55;;;9.20;70.70;;;;;;5050164;28;20042;-66
2021/10/13 04:09:05;;;;;;;8.10;4.20;;;9.20;70.70;;;;;;5049824;28;20021;-66
2021/10/13 04:11:31;;;;;;;10.75;4.45;;;9.20;71.20;;;;;;5051555;28;20479;-66
2021/10/13 04:13:57;;;;;;;11.10;4.38;;;9.10;71.40;;;;;;5050304;28;20094;-66
2021/10/13 04:16:22;;;;;;;7.03;3.90;;;9.20;71.70;;;;;;5040190;28;20032;-66
2021/10/13 04:18:48;;;;;;;6.47;3.72;;;9.10;71.80;;;;;;5046063;28;20036;-66
2021/10/13 04:21:14;;;;;;;6.47;3.38;;;9.10;71.90;;;;;;5048943;28;20017;-66
2021/10/13 04:23:40;;;;;;;6.32;3.00;;;9.10;72.20;;;;;;5044070;28;20091;-66
2021/10/13 04:26:06;;;;;;;4.40;3.00;;;9.10;72.40;;;;;;5050270;28;20075;-65
2021/10/13 04:28:31;;;;;;;6.15;3.25;;;9.10;72.60;;;;;;5039782;28;20033;-66
2021/10/13 04:30:57;;;;;;;5.10;2.80;;;9.10;72.40;;;;;;5044080;28;20059;-66
2021/10/13 04:33:23;;;;;;;6.13;3.03;;;9.10;72.50;;;;;;5049123;28;20025;-67
2021/10/13 04:35:48;;;;;;;5.45;3.17;;;9.10;72.70;;;;;;5049044;28;20071;-66
2021/10/13 04:38:14;;;;;;;6.05;3.58;;;9.10;72.50;;;;;;5024794;28;20036;-66
2021/10/13 04:40:40;;;;;;;5.80;3.42;;;9.10;72.10;;;;;;5038683;28;20057;-67
2021/10/13 04:43:06;;;;;;;9.50;4.18;;;9.00;71.70;;;;;;5048880;28;20052;-66
2021/10/13 04:45:31;;;;;;;6.10;4.07;;;9.00;71.70;;;;;;5045432;28;20782;-66
2021/10/13 04:47:57;;;;;;;6.90;3.90;;;9.00;72.00;;;;;;5031983;28;20021;-67
2021/10/13 04:50:23;;;;;;;6.65;3.92;;;8.90;72.20;;;;;;5049931;28;20025;-67
2021/10/13 04:52:49;;;;;;;8.95;4.28;;;8.90;72.40;;;;;;5051499;28;20053;-66
2021/10/13 04:55:15;;;;;;;17.90;4.47;;;9.00;72.60;;;;;;5049379;28;20024;-65
2021/10/13 04:57:41;;;;;;;8.07;3.67;;;9.00;72.40;;;;;;5054270;28;20055;-66
2021/10/13 05:00:07;;;;;;;9.35;4.32;;;8.90;72.20;;;;;;5059721;28;20028;-66
2021/10/13 05:02:34;;;;;;;8.30;4.00;;;8.90;72.00;;;;;;5045278;28;20024;-66
2021/10/13 05:05:01;;;;;;;10.43;4.63;;;8.80;72.00;;;;;;5049884;28;20033;-67
2021/10/13 05:07:27;;;;;;;8.95;4.30;;;8.80;72.00;;;;;;5049180;28;20047;-66
2021/10/13 05:09:53;;;;;;;8.52;4.00;;;8.80;72.10;;;;;;5049333;28;20065;-66
2021/10/13 05:12:19;;;;;;;7.78;4.00;;;8.80;72.20;;;;;;5049082;28;20029;-66
2021/10/13 05:14:44;;;;;;;9.77;4.20;;;8.80;72.50;;;;;;5049806;28;20029;-67
2021/10/13 05:17:11;;;;;;;9.50;3.78;;;8.80;72.50;;;;;;5047054;28;20044;-66
2021/10/13 05:19:37;;;;;;;6.60;3.70;;;8.80;72.30;;;;;;5035728;28;20031;-66
2021/10/13 05:22:03;;;;;;;7.22;3.70;;;8.80;72.40;;;;;;5047308;28;20029;-67
2021/10/13 05:24:29;;;;;;;6.65;3.50;;;8.80;72.60;;;;;;5049888;28;20088;-67
2021/10/13 05:26:55;;;;;;;5.60;3.15;;;8.90;72.90;;;;;;5047886;28;20472;-67
2021/10/13 05:29:21;;;;;;;8.70;3.22;;;8.80;73.00;;;;;;5049441;28;20481;-66
2021/10/13 05:31:47;;;;;;;8.32;3.83;;;8.90;73.00;;;;;;5050634;28;20564;-66
2021/10/13 05:34:13;;;;;;;7.70;3.60;;;8.90;72.90;;;;;;5048286;28;20095;-67
2021/10/13 05:36:38;;;;;;;7.97;3.85;;;8.90;72.70;;;;;;5049435;28;20024;-66
2021/10/13 05:39:04;;;;;;;7.32;3.90;;;8.90;72.50;;;;;;5048504;28;20499;-68
2021/10/13 05:41:30;;;;;;;7.80;3.95;;;8.90;72.40;;;;;;5049884;28;20041;-68
2021/10/13 05:43:56;;;;;;;8.50;4.53;;;9.00;72.50;;;;;;5049704;28;20097;-69
2021/10/13 05:46:21;;;;;;;8.40;4.30;;;9.00;72.70;;;;;;5049956;28;20074;-68
2021/10/13 05:48:47;;;;;;;6.43;4.20;;;9.10;73.00;;;;;;5040616;28;20059;-68
2021/10/13 05:51:13;;;;;;;8.68;4.32;;;9.10;73.00;;;;;;5042700;28;20155;-67
2021/10/13 05:53:39;;;;;;;10.32;4.70;;;9.20;73.00;;;;;;5035934;28;20044;-67
2021/10/13 05:56:05;;;;;;;8.77;4.82;;;9.30;73.10;;;;;;5049329;28;20376;-67
2021/10/13 05:58:31;;;;;;;8.70;5.00;;;9.30;73.20;;;;;;5032074;28;20072;-68
2021/10/13 06:00:57;;;;;;;11.77;6.53;;;9.40;73.20;;;;;;5021836;28;20060;-66
2021/10/13 06:03:22;;;;;;;9.50;4.72;;;9.40;73.30;;;;;;5036427;28;20029;-66
2021/10/13 06:05:50;;;;;;;7.53;4.50;;;9.50;73.30;;;;;;5045956;28;20040;-66
2021/10/13 06:08:16;;;;;;;9.25;4.53;;;9.60;73.40;;;;;;5030154;28;20426;-66
2021/10/13 06:10:42;;;;;;;9.20;4.68;;;9.60;73.30;;;;;;5049413;28;20476;-66
2021/10/13 06:13:08;;;;;;;8.05;4.45;;;9.70;73.30;;;;;;5047134;28;20032;-66
2021/10/13 06:15:36;;;;;;;7.72;4.72;;;9.70;73.20;;;;;;5044015;28;20438;-66
2021/10/13 06:18:07;;;;;;;9.52;5.30;;;9.70;73.10;;;;;;5048438;28;20025;-66
2021/10/13 06:20:33;;;;;;;8.20;4.70;;;9.80;73.20;;;;;;5048798;28;20036;-66
2021/10/13 06:22:59;;;;;;;7.00;4.25;;;9.80;73.40;;;;;;5041028;28;20500;-66
2021/10/13 06:25:27;;;;;;;6.38;4.53;;;9.80;74.40;;;;;;5045739;28;20021;-66
2021/10/13 06:27:52;;;;;;;7.20;4.32;;;9.80;73.50;;;;;;5044268;28;20029;-66
2021/10/13 06:30:18;;;;;;;8.95;4.30;;;9.80;73.50;;;;;;5043854;28;20041;-66
2021/10/13 06:32:44;;;;;;;9.02;4.50;;;9.80;73.60;;;;;;5046274;28;20037;-66
2021/10/13 06:35:10;;;;;;;11.27;4.20;;;9.80;73.70;;;;;;5038917;28;20083;-66
2021/10/13 06:37:36;;;;;;;6.68;4.25;;;9.80;73.70;;;;;;5045714;28;20049;-66
2021/10/13 06:40:02;;;;;;;16.13;4.97;;;9.80;73.70;;;;;;5044330;28;20041;-66
2021/10/13 06:42:28;;;;;;;10.45;4.75;;;9.80;73.70;;;;;;5044254;28;20480;-66
2021/10/13 06:44:54;;;;;;;8.70;4.93;;;9.80;73.70;;;;;;5047676;28;20095;-66
2021/10/13 06:47:19;;;;;;;11.65;5.45;;;9.80;73.70;;;;;;5032091;28;20104;-66
2021/10/13 06:49:45;;;;;;;13.35;5.35;;;9.80;73.80;;;;;;5043655;28;20025;-66
2021/10/13 06:52:11;;;;;;;10.70;4.65;;;9.80;73.70;;;;;;5047936;28;20025;-66
2021/10/13 06:54:36;;;;;;;8.93;4.80;;;9.80;73.70;;;;;;5048349;28;20559;-66
2021/10/13 06:57:02;;;;;;;10.43;5.13;;;9.90;73.80;;;;;;5047973;28;20029;-66
2021/10/13 06:59:28;;;;;;;8.20;4.95;;;10.00;73.60;;;;;;5044671;28;20031;-66
2021/10/13 07:01:54;;;;;;;8.63;4.68;;;10.20;73.30;;;;;;5038040;28;20040;-66
2021/10/13 07:04:20;;;;;;;7.43;4.28;;;10.50;72.70;;;;;;5041589;28;20080;-66
2021/10/13 07:06:46;;;;;;;8.20;4.72;;;10.80;72.10;;;;;;5044078;28;20105;-66
2021/10/13 07:09:11;;;;;;;10.27;5.00;;;10.80;71.70;;;;;;5046893;28;20033;-67
2021/10/13 07:11:37;;;;;;;7.25;4.57;;;10.90;71.50;;;;;;5050372;28;20071;-66
2021/10/13 07:14:06;;;;;;;8.95;4.82;;;11.30;70.90;;;;;;5049445;28;20025;-66
2021/10/13 07:16:32;;;;;;;9.57;4.80;;;11.70;69.90;;;;;;5052480;28;20507;-66
2021/10/13 07:18:58;;;;;;;11.23;5.00;;;12.10;68.80;;;;;;5047931;28;20037;-65
2021/10/13 07:21:24;;;;;;;7.05;4.28;;;12.40;67.90;;;;;;5047756;28;20017;-66
2021/10/13 07:23:50;;;;;;;9.32;4.10;;;12.80;67.00;;;;;;5051866;28;20040;-66
2021/10/13 07:26:16;;;;;;;9.98;4.65;;;13.20;66.00;;;;;;5045812;28;20083;-66
2021/10/13 07:28:42;;;;;;;9.52;4.22;;;13.40;65.20;;;;;;5038976;28;20033;-65
2021/10/13 07:31:09;;;;;;;6.93;4.43;;;13.80;64.30;;;;;;5040208;28;20095;-66
2021/10/13 07:33:35;;;;;;;8.18;4.50;;;14.40;63.20;;;;;;5046218;28;20034;-66
2021/10/13 07:36:01;;;;;;;8.48;4.80;;;14.80;61.90;;;;;;5040648;28;20017;-67
2021/10/13 07:38:27;;;;;;;9.68;5.15;;;15.30;60.80;;;;;;5041247;28;20108;-68
2021/10/13 07:40:54;;;;;;;9.50;5.28;;;15.70;59.70;;;;;;5048328;28;20491;-68
2021/10/13 07:43:20;;;;;;;10.18;5.15;;;16.20;58.70;;;;;;5045966;28;20036;-68
2021/10/13 07:45:46;;;;;;;10.20;5.75;;;16.70;57.40;;;;;;5050643;28;20032;-68
2021/10/13 07:48:12;;;;;;;17.48;7.40;;;17.30;56.00;;;;;;5044556;28;20067;-68
2021/10/13 07:50:38;;;;;;;14.60;7.20;;;17.90;54.80;;;;;;5052284;28;20051;-68
2021/10/13 07:53:04;;;;;;;16.52;8.07;;;18.50;53.70;;;;;;5051789;28;20083;-68
2021/10/13 07:55:34;;;;;;;14.65;7.53;;;19.00;52.70;;;;;;5022516;28;20029;-68
2021/10/13 07:58:00;;;;;;;12.23;7.30;;;19.60;51.60;;;;;;5040517;28;20040;-68
2021/10/13 08:00:26;;;;;;;9.70;6.15;;;20.20;50.40;;;;;;5040228;28;20339;-69
2021/10/13 08:02:51;;;;;;;13.80;6.55;;;20.90;49.10;;;;;;5039294;28;20024;-68
2021/10/13 08:05:18;;;;;;;13.20;7.22;;;21.40;48.00;;;;;;5051560;28;20052;-69
2021/10/13 08:07:45;;;;;;;18.05;9.13;;;21.90;47.10;;;;;;5040567;28;20018;-68
2021/10/13 08:10:11;;;;;;;23.27;13.07;;;22.50;45.70;;;;;;5050270;28;20057;-69
2021/10/13 08:12:36;;;;;;;28.13;16.77;;;22.80;45.30;;;;;;5044650;28;20060;-69
2021/10/13 08:15:03;;;;;;;35.38;21.33;;;23.20;44.20;;;;;;5040332;28;20056;-69
2021/10/13 08:17:29;;;;;;;33.08;20.65;;;23.90;43.10;;;;;;5036111;28;20029;-69
2021/10/13 08:19:55;;;;;;;33.10;20.45;;;24.40;41.90;;;;;;5051829;28;20096;-69
2021/10/13 08:22:22;;;;;;;25.15;15.25;;;24.80;41.20;;;;;;5039222;28;20029;-69
2021/10/13 08:24:48;;;;;;;22.88;14.43;;;25.20;40.70;;;;;;5039654;28;20087;-69
2021/10/13 08:27:14;;;;;;;24.55;13.90;;;25.70;39.90;;;;;;5039897;28;20079;-69
2021/10/13 08:29:40;;;;;;;21.02;13.00;;;26.10;39.00;;;;;;5037157;28;20029;-69
2021/10/13 08:32:06;;;;;;;13.73;9.23;;;26.50;38.50;;;;;;5034871;28;20037;-69
2021/10/13 08:34:32;;;;;;;14.38;9.57;;;26.90;38.90;;;;;;5039119;28;20107;-69
2021/10/13 08:36:58;;;;;;;17.02;9.50;;;26.90;37.50;;;;;;5039658;28;20539;-69
2021/10/13 08:39:23;;;;;;;17.88;9.98;;;26.80;37.40;;;;;;5039550;28;20404;-69
2021/10/13 08:41:49;;;;;;;16.02;9.75;;;26.50;37.70;;;;;;5038440;28;20063;-69
2021/10/13 08:44:16;;;;;;;17.27;10.02;;;26.50;37.70;;;;;;5049407;28;20064;-67
2021/10/13 08:46:43;;;;;;;17.83;9.40;;;26.80;37.70;;;;;;5052335;28;20029;-69
2021/10/13 08:49:09;;;;;;;17.70;10.85;;;27.60;37.00;;;;;;5050492;28;20021;-68
2021/10/13 08:51:36;;;;;;;15.20;10.18;;;28.40;36.10;;;;;;5050775;28;20091;-69
2021/10/13 08:54:02;;;;;;;15.75;8.70;;;29.00;35.10;;;;;;5050061;28;20032;-68
2021/10/13 08:56:28;;;;;;;12.50;8.15;;;29.50;34.00;;;;;;5035460;28;20024;-68
2021/10/13 08:58:54;;;;;;;13.02;8.10;;;30.00;33.30;;;;;;5035950;28;20036;-68
2021/10/13 09:01:20;;;;;;;15.73;8.60;;;30.50;32.90;;;;;;5050407;28;20029;-68
2021/10/13 09:03:54;;;;;;;12.45;7.75;;;31.10;32.20;;;;;;5050713;28;20080;-68
2021/10/13 09:06:28;;;;;;;14.20;7.10;;;31.70;31.40;;;;;;5046983;28;20022;-68
2021/10/13 09:09:04;;;;;;;12.27;6.60;;;32.40;30.40;;;;;;5038333;28;20096;-68
2021/10/13 09:11:29;;;;;;;12.05;7.45;;;32.90;29.80;;;;;;5033771;28;20026;-68
2021/10/13 09:14:20;;;;;;;13.30;6.82;;;33.10;29.40;;;;;;5035981;28;20029;-68
2021/10/13 09:16:59;;;;;;;14.25;7.03;;;33.50;28.90;;;;;;5036271;28;20026;-69
2021/10/13 09:19:35;;;;;;;11.20;6.93;;;33.60;28.60;;;;;;5038563;28;20131;-69
2021/10/13 09:22:05;;;;;;;10.15;6.72;;;34.00;28.10;;;;;;5047522;28;20040;-69
2021/10/13 09:24:38;;;;;;;12.45;7.10;;;34.50;27.70;;;;;;5049939;28;20422;-69
2021/10/13 09:27:20;;;;;;;12.63;6.60;;;34.80;27.20;;;;;;5050381;28;20028;-69
2021/10/13 09:29:47;;;;;;;11.93;6.57;;;35.10;27.10;;;;;;5050077;28;20109;-69
2021/10/13 09:32:13;;;;;;;11.13;6.90;;;35.50;26.70;;;;;;5032173;28;20048;-68
2021/10/13 09:34:51;;;;;;;12.75;6.65;;;35.80;26.30;;;;;;5050797;28;20033;-69
2021/10/13 09:37:17;;;;;;;10.82;6.85;;;35.90;26.30;;;;;;5039020;28;20048;-69
2021/10/13 09:39:58;;;;;;;12.02;6.72;;;35.90;26.30;;;;;;5026809;28;20056;-68
2021/10/13 09:42:25;;;;;;;11.38;6.40;;;35.60;26.20;;;;;;5045783;28;20021;-69
2021/10/13 09:44:59;;;;;;;9.88;6.35;;;35.00;26.70;;;;;;5035277;28;20151;-68
2021/10/13 09:47:32;;;;;;;11.18;6.65;;;33.50;27.30;;;;;;5034142;28;20116;-68
2021/10/13 09:49:58;;;;;;;11.32;6.63;;;32.20;28.70;;;;;;5046437;28;20025;-68
2021/10/13 09:52:29;;;;;;;12.73;7.05;;;31.40;29.70;;;;;;5039134;28;20391;-69
2021/10/13 09:55:05;;;;;;;13.13;6.82;;;31.10;30.00;;;;;;5045933;28;20032;-69
2021/10/13 09:57:33;;;;;;;11.60;6.18;;;32.60;29.40;;;;;;5049495;28;20032;-69
2021/10/13 10:00:00;;;;;;;12.13;6.30;;;34.10;27.80;;;;;;5049703;28;20053;-69
2021/10/13 10:02:30;;;;;;;11.60;6.15;;;35.10;26.70;;;;;;5033654;28;20120;-69
2021/10/13 10:05:00;;;;;;;10.18;6.03;;;35.80;25.80;;;;;;5040986;28;20041;-69
2021/10/13 10:07:25;;;;;;;11.07;6.00;;;36.50;25.30;;;;;;5038128;28;20030;-69
2021/10/13 10:10:12;;;;;;;10.48;5.57;;;37.30;24.70;;;;;;5042359;28;20074;-69
2021/10/13 10:13:23;;;;;;;9.52;5.07;;;38.10;23.90;;;;;;5043969;28;20331;-69
2021/10/13 10:15:49;;;;;;;10.50;5.78;;;38.80;23.40;;;;;;4983406;28;20050;-69
2021/10/13 10:18:32;;;;;;;8.95;5.18;;;39.40;22.90;;;;;;4987696;28;20061;-69
2021/10/13 10:21:19;;;;;;;9.20;4.65;;;40.10;22.30;;;;;;4988227;28;20428;-69
2021/10/13 10:23:46;;;;;;;9.02;4.90;;;40.50;21.00;;;;;;4987301;28;20058;-69
2021/10/13 10:26:24;;;;;;;9.75;4.93;;;40.60;20.90;;;;;;4987728;28;20053;-69
2021/10/13 10:28:50;;;;;;;9.75;4.90;;;40.60;20.60;;;;;;4989247;28;20038;-69
2021/10/13 10:31:28;;;;;;;14.82;5.22;;;40.80;20.60;;;;;;4986884;28;20050;-69
2021/10/13 10:34:06;;;;;;;10.73;5.32;;;41.00;20.40;;;;;;4975820;28;20512;-70
2021/10/13 10:36:34;;;;;;;8.48;4.50;;;41.30;20.30;;;;;;4978547;28;20034;-70
2021/10/13 10:39:21;;;;;;;9.98;4.80;;;41.90;20.10;;;;;;4984442;28;20034;-69
2021/10/13 10:41:49;;;;;;;8.65;4.63;;;42.30;19.20;;;;;;4975305;28;20038;-69
2021/10/13 10:44:39;;;;;;;7.97;4.43;;;42.70;19.20;;;;;;4980335;28;20070;-69
2021/10/13 10:47:18;;;;;;;9.50;4.70;;;43.20;18.60;;;;;;4984548;28;20401;-70
2021/10/13 10:49:46;;;;;;;7.33;3.90;;;43.60;18.40;;;;;;4977245;28;20089;-71
2021/10/13 10:52:32;;;;;;;8.20;3.90;;;43.50;18.20;;;;;;5004665;28;20128;-71
2021/10/13 10:55:04;;;;;;;4.32;2.10;;;43.60;18.20;;;;;;5048718;28;20116;-70
2021/10/13 10:57:52;;;;;;;6.45;3.10;;;44.20;17.30;;;;;;5057433;28;20025;-71
2021/10/13 11:00:21;;;;;;;7.68;3.58;;;43.60;17.00;;;;;;5051013;28;20027;-70
2021/10/13 11:02:51;;;;;;;7.05;3.78;;;43.90;17.70;;;;;;5050642;28;20033;-71
2021/10/13 11:05:22;;;;;;;8.73;3.50;;;41.40;17.40;;;;;;5051118;28;20063;-70
2021/10/13 11:07:48;;;;;;;7.53;4.03;;;38.60;19.60;;;;;;5053177;28;20488;-69
2021/10/13 11:10:15;;;;;;;8.77;4.70;;;36.10;21.80;;;;;;5052218;28;20021;-70
2021/10/13 11:12:50;;;;;;;9.35;4.10;;;34.10;23.60;;;;;;5052051;28;20033;-69
2021/10/13 11:15:17;;;;;;;7.65;3.60;;;32.40;25.30;;;;;;5048618;28;20033;-69
2021/10/13 11:17:43;;;;;;;7.60;4.00;;;31.00;26.70;;;;;;5041485;28;20028;-69
2021/10/13 11:20:12;;;;;;;8.70;4.03;;;30.00;27.80;;;;;;5050935;28;20025;-68
2021/10/13 11:22:39;;;;;;;6.82;2.80;;;29.40;28.70;;;;;;5049041;28;20053;-67
2021/10/13 11:25:19;;;;;;;6.53;3.58;;;29.40;28.60;;;;;;5047368;28;20029;-67
2021/10/13 11:28:08;;;;;;;8.20;3.42;;;28.80;29.70;;;;;;5046367;28;20030;-67
2021/10/13 11:30:43;;;;;;;8.80;3.67;;;28.20;30.60;;;;;;5048254;28;20048;-67
2021/10/13 11:33:15;;;;;;;9.13;4.00;;;27.70;31.50;;;;;;5050072;28;20040;-65
2021/10/13 11:35:41;;;;;;;8.02;4.82;;;27.20;32.20;;;;;;5048873;28;20029;-66
2021/10/13 11:38:13;;;;;;;9.25;4.70;;;26.80;32.90;;;;;;5045790;28;20029;-65
2021/10/13 11:40:38;;;;;;;11.90;4.57;;;26.50;33.80;;;;;;5050937;28;20104;-66
2021/10/13 11:43:10;;;;;;;7.90;4.43;;;26.10;34.40;;;;;;5045034;28;20120;-66
2021/10/13 11:45:51;;;;;;;8.40;4.45;;;25.70;35.20;;;;;;5046155;28;20033;-66
2021/10/13 11:48:25;;;;;;;8.45;4.63;;;25.40;36.00;;;;;;5040473;28;20036;-65
2021/10/13 11:50:53;;;;;;;9.23;4.10;;;27.50;36.20;;;;;;5039101;28;20071;-66
2021/10/13 11:53:19;;;;;;;8.48;3.85;;;31.10;30.40;;;;;;5048997;28;20519;-66
2021/10/13 11:55:45;;;;;;;6.38;4.10;;;34.20;27.40;;;;;;5049862;28;20075;-67
2021/10/13 11:58:11;;;;;;;8.80;4.22;;;36.50;25.20;;;;;;5040399;28;20029;-67
2021/10/13 12:00:46;;;;;;;9.15;4.40;;;38.20;23.10;;;;;;5044936;28;20033;-67
2021/10/13 12:03:13;;;;;;;7.00;3.90;;;39.50;21.70;;;;;;5047048;28;20488;-67
2021/10/13 12:05:40;;;;;;;9.20;3.50;;;40.50;20.70;;;;;;5037140;28;20112;-67
2021/10/13 12:08:16;;;;;;;6.45;3.47;;;41.80;19.50;;;;;;5047131;28;20032;-67
2021/10/13 12:10:43;;;;;;;5.20;3.22;;;41.30;18.30;;;;;;5050686;28;20023;-67
2021/10/13 12:13:14;;;;;;;8.23;3.70;;;40.00;19.60;;;;;;5051338;28;20116;-67
2021/10/13 12:15:46;;;;;;;8.55;4.43;;;37.10;21.00;;;;;;5051330;28;20098;-67
2021/10/13 12:18:18;;;;;;;7.03;4.25;;;35.00;23.00;;;;;;5051137;28;20049;-66
2021/10/13 12:20:47;;;;;;;5.97;4.30;;;33.50;24.60;;;;;;5051127;28;20491;-66
2021/10/13 12:23:19;;;;;;;14.35;4.80;;;32.60;25.70;;;;;;5048872;28;20051;-66
2021/10/13 12:25:45;;;;;;;7.03;4.70;;;32.20;26.20;;;;;;5049665;28;20029;-66
2021/10/13 12:28:15;;;;;;;8.82;4.45;;;33.80;26.30;;;;;;5048199;28;20043;-68
2021/10/13 12:30:41;;;;;;;6.97;4.82;;;36.20;24.20;;;;;;5044556;28;20053;-68
2021/10/13 12:33:18;;;;;;;7.53;3.90;;;38.10;22.40;;;;;;5040265;28;20021;-67
2021/10/13 12:35:46;;;;;;;9.02;4.47;;;39.30;20.80;;;;;;5048777;28;20048;-67
2021/10/13 12:38:20;;;;;;;7.47;3.78;;;40.00;20.20;;;;;;5050455;28;20024;-67
2021/10/13 12:41:05;;;;;;;7.53;4.13;;;40.90;19.80;;;;;;5048978;28;20029;-68
2021/10/13 12:43:32;;;;;;;7.60;3.70;;;41.40;18.90;;;;;;5049397;28;20075;-68
2021/10/13 12:46:37;;;;;;;6.57;3.67;;;40.00;19.90;;;;;;5030899;28;20021;-68
2021/10/13 12:49:14;;;;;;;5.10;2.90;;;41.40;19.20;;;;;;4963873;28;20055;-68
2021/10/13 12:52:05;;;;;;;5.90;2.97;;;42.20;18.20;;;;;;4962811;28;20037;-68
2021/10/13 12:54:39;;;;;;;6.18;3.53;;;41.80;17.50;;;;;;4967710;28;20074;-68
2021/10/13 12:57:10;;;;;;;6.78;3.10;;;38.50;19.30;;;;;;4967570;28;20538;-69
2021/10/13 12:59:36;;;;;;;5.20;3.08;;;35.80;21.50;;;;;;4969341;28;20050;-69